Latest Weather Observations for Kanagulk

IDV60801

Issued at 8:05 pm EST Monday 28 July 2014 (issued every 30 minutes, with the page automatically refreshed every 10 minutes)

About weather observations | Map of weather stations | Latest weather observations for VIC | Other Formats
Station Details ID: 079097 Name: KANAGULK Lat: -37.12 Lon: 141.80 Height: 188.8 m
Data from the previous 72 hours. | See also: Recent months at Kanagulk
Date/Time
EST
Temp
°C
App
Temp
°C
Dew
Point
Rel
Hum
%
Delta-T
°C
Wind Press
QNH
hPa
Press
MSL
hPa
Rain
since 9 am
mm
Dir
 
Spd
km/h
Gust
km/h
Spd
kts
Gust
kts
28/08:00pm 10.9 7.9 7.6 80 1.6 NNW 13 20 7 11 1013.4 1013.7 0.0
28/07:30pm 10.7 8.0 7.2 79 1.7 NNW 11 19 6 10 1013.3 - 0.0
28/07:00pm 10.5 8.1 7.0 79 1.7 NNW 9 15 5 8 1013.3 1013.6 0.0
28/06:30pm 11.6 8.9 7.5 76 2.0 NW 11 17 6 9 1013.4 - 0.0
28/06:00pm 12.3 9.6 7.2 71 2.5 NW 11 17 6 9 1012.9 1013.3 0.0
28/05:30pm 12.9 10.2 7.4 69 2.7 NW 11 17 6 9 1012.8 - 0.0
28/05:00pm 14.5 11.0 7.3 62 3.6 NW 15 26 8 14 1012.7 1013.1 0.0
28/04:30pm 15.1 11.3 7.4 60 3.8 NW 17 24 9 13 1012.7 - 0.0
28/04:00pm 15.5 11.8 8.0 61 3.8 NW 17 30 9 16 1012.9 1013.3 0.0
28/03:30pm 15.7 11.4 7.7 59 4.0 WNW 20 37 11 20 1013.0 - 0.0
28/03:00pm 15.8 11.6 8.1 60 3.9 NW 20 33 11 18 1013.2 1013.5 0.0
28/02:30pm 15.6 11.5 7.9 60 3.9 NW 19 35 10 19 1013.3 - 0.0
28/02:00pm 15.7 12.9 8.4 62 3.7 WNW 13 28 7 15 1013.8 1014.1 0.0
28/01:30pm 15.4 10.7 7.9 61 3.8 NW 22 37 12 20 1013.6 - 0.0
28/01:00pm 15.1 11.6 8.8 66 3.2 WNW 17 32 9 17 1014.3 1014.6 0.0
28/12:30pm 15.1 11.2 9.5 69 2.9 NW 20 28 11 15 1014.8 - 0.0
28/12:00pm 14.1 11.3 9.9 76 2.2 NNW 15 26 8 14 1015.2 1015.5 0.0
28/11:30am 14.0 11.2 10.0 77 2.1 NW 15 30 8 16 1015.6 - 0.0
28/11:00am 12.7 9.8 9.5 81 1.6 NW 15 24 8 13 1015.9 1016.2 0.0
28/10:30am 12.0 9.5 9.7 86 1.2 NNW 13 19 7 10 1015.9 - 0.0
28/10:00am 9.5 7.1 8.7 95 0.4 N 11 17 6 9 1016.0 1016.3 0.0
28/09:30am 8.6 6.6 8.5 99 0.0 N 9 11 5 6 1016.1 - 0.0
28/09:00am 7.5 5.8 7.4 99 0.0 N 6 11 3 6 1016.1 1016.4 0.0
28/08:30am 6.6 4.7 6.5 99 0.0 N 6 9 3 5 1016.0 - 0.0
28/08:00am 5.2 2.8 5.1 99 0.0 NE 7 9 4 5 1016.0 1016.3 0.0
28/07:30am 3.9 2.2 3.8 99 0.0 ENE 2 7 1 4 1016.1 - 0.0
28/07:00am 3.0 -0.2 2.9 99 0.0 NE 9 9 5 5 1015.8 1016.1 0.0
28/06:30am 2.6 -0.3 2.5 99 0.0 ENE 7 9 4 5 1015.7 - 0.0
28/06:00am 3.2 0.4 3.1 99 0.0 N 7 9 4 5 1015.7 1016.0 0.0
28/05:30am 3.0 -0.2 2.9 99 0.0 NNE 9 9 5 5 1016.0 - 0.0
28/05:00am 3.6 0.5 3.5 99 0.0 NNE 9 11 5 6 1015.8 1016.1 0.0
28/04:30am 3.2 0.4 3.1 99 0.0 NNE 7 7 4 4 1015.9 - 0.0
28/04:00am 4.1 1.5 4.0 99 0.0 NNE 7 9 4 5 1016.0 1016.3 0.0
28/03:30am 4.8 1.1 4.5 98 0.1 NNE 13 15 7 8 1016.2 - 0.0
28/03:00am 4.7 1.4 4.3 97 0.2 NE 11 11 6 6 1016.5 1016.8 0.0
28/02:30am 4.9 1.6 4.3 96 0.3 NE 11 11 6 6 1016.9 - 0.0
28/02:00am 5.0 1.6 4.1 94 0.4 NE 11 11 6 6 1016.9 1017.3 0.0
28/01:30am 5.5 2.5 4.2 91 0.6 NE 9 9 5 5 1017.0 - 0.0
28/01:00am 8.0 4.6 5.8 86 1.0 N 13 17 7 9 1017.2 1017.6 0.0
28/12:30am 7.3 4.7 5.9 91 0.6 N 9 13 5 7 1017.6 - 0.0
28/12:00am 6.7 3.8 4.9 88 0.8 NNE 9 13 5 7 1017.9 1018.3 0.0
 
Date/Time
EST
Temp
°C
App
Temp
°C
Dew
Point
Rel
Hum
%
Delta-T
°C
Wind Press
QNH
hPa
Press
MSL
hPa
Rain
since 9 am
mm
Dir
 
Spd
km/h
Gust
km/h
Spd
kts
Gust
kts
27/11:30pm 7.9 4.9 5.9 87 0.9 N 11 13 6 7 1018.2 - 0.0
27/11:00pm 8.4 5.7 5.7 83 1.2 N 9 13 5 7 1018.5 1018.9 0.0
27/10:30pm 9.6 6.6 6.0 78 1.7 N 11 17 6 9 1018.6 - 0.0
27/10:00pm 10.4 6.7 6.2 75 2.0 N 15 22 8 12 1018.6 1019.0 0.0
27/09:30pm 11.0 7.0 6.6 74 2.1 N 17 26 9 14 1018.6 - 0.0
27/09:00pm 10.7 6.7 6.6 76 1.9 N 17 24 9 13 1018.8 1019.1 0.0
27/08:30pm 10.2 6.6 6.9 80 1.6 N 15 24 8 13 1019.0 - 0.0
27/08:00pm 10.0 7.3 7.3 83 1.3 N 11 19 6 10 1019.2 1019.5 0.0
27/07:30pm 9.2 6.7 6.6 84 1.2 N 9 15 5 8 1019.6 - 0.0
27/07:00pm 9.5 7.0 6.4 81 1.4 N 9 11 5 6 1019.7 1020.0 0.0
27/06:30pm 10.5 8.4 6.5 76 1.9 NNW 7 13 4 7 1019.7 - 0.0
27/06:00pm 11.2 8.7 6.5 73 2.2 N 9 13 5 7 1019.5 1019.8 0.0
27/05:30pm 12.5 10.1 7.0 69 2.7 NNW 9 15 5 8 1019.3 - 0.0
27/05:00pm 13.5 10.8 7.5 67 3.0 NNW 11 22 6 12 1019.1 1019.4 0.0
27/04:30pm 14.0 10.1 7.1 63 3.4 NNW 17 24 9 13 1018.9 - 0.0
27/04:00pm 14.5 10.8 8.0 65 3.3 NNW 17 26 9 14 1018.9 1019.2 0.0
27/03:30pm 14.7 10.9 7.5 62 3.6 NNW 17 28 9 15 1019.4 - 0.0
27/03:00pm 15.1 11.0 7.9 62 3.6 NNW 19 30 10 16 1019.2 1019.5 0.0
27/02:30pm 15.7 12.6 8.7 63 3.6 NNW 15 28 8 15 1020.0 - 0.0
27/02:00pm 15.0 11.4 8.3 64 3.4 NW 17 26 9 14 1020.1 1020.4 0.0
27/01:30pm 14.3 10.6 8.0 66 3.2 NNW 17 32 9 17 1020.5 - 0.0
27/01:00pm 14.0 10.4 8.2 68 2.9 NNW 17 28 9 15 1020.9 1021.2 0.0
27/12:30pm 13.5 10.0 8.6 72 2.5 NNW 17 28 9 15 1021.2 - 0.0
27/12:00pm 13.4 10.0 9.1 75 2.2 N 17 28 9 15 1021.9 1022.3 0.0
27/11:30am 13.0 9.1 9.6 80 1.8 N 20 35 11 19 1022.5 - 0.0
27/11:00am 10.7 7.5 9.9 95 0.4 N 17 28 9 15 1023.1 1023.5 0.0
27/10:30am 9.1 5.3 9.0 99 0.0 N 19 24 10 13 1023.3 - 0.0
27/10:00am 8.5 4.9 8.4 99 0.0 N 17 24 9 13 1023.5 1023.9 0.0
27/09:30am 7.9 3.8 7.9 100 0.0 N 19 24 10 13 1023.6 - 0.0
27/09:00am 6.8 3.2 6.8 100 0.0 N 15 20 8 11 1024.1 1024.5 0.2
27/08:30am 6.2 2.5 6.2 100 0.0 N 15 22 8 12 1024.5 - 0.2
27/08:00am 4.3 0.9 4.2 99 0.0 NNE 11 13 6 7 1024.5 1024.8 0.2
27/07:30am 3.8 0.7 3.7 99 0.0 NNE 9 11 5 6 1024.7 - 0.2
27/07:00am 3.9 1.2 3.8 99 0.0 NNE 7 9 4 5 1024.4 1024.7 0.2
27/06:30am 4.1 1.6 4.0 99 0.0 NNE 6 7 3 4 1024.3 - 0.2
27/06:00am 4.3 1.7 4.2 99 0.0 NNE 7 11 4 6 1024.1 1024.5 0.2
27/05:30am 4.3 2.6 4.2 99 0.0 NE 2 7 1 4 1024.3 - 0.2
27/05:00am 4.2 1.8 4.1 99 0.0 NE 6 7 3 4 1024.3 1024.6 0.0
27/04:30am 4.6 2.2 4.5 99 0.0 NE 6 9 3 5 1024.4 - 0.0
27/04:00am 4.4 2.0 4.3 99 0.0 NE 6 7 3 4 1024.6 1024.9 0.0
27/03:30am 4.4 2.0 4.3 99 0.0 NNE 6 7 3 4 1024.7 - 0.0
27/03:00am 4.9 2.4 4.8 99 0.0 ENE 7 9 4 5 1024.8 1025.1 0.0
27/02:30am 4.9 3.7 4.8 99 0.0 CALM 0 0 0 0 1024.8 - 0.0
27/02:00am 5.2 4.1 5.1 99 0.0 CALM 0 0 0 0 1024.9 1025.2 0.0
27/01:30am 5.2 4.1 5.1 99 0.0 CALM 0 0 0 0 1025.1 - 0.0
27/01:00am 6.1 5.2 6.0 99 0.0 CALM 0 0 0 0 1025.2 1025.5 0.0
27/12:30am 6.8 6.0 6.7 99 0.0 CALM 0 0 0 0 1025.6 - 0.0
27/12:00am 7.1 6.4 7.0 99 0.0 CALM 0 0 0 0 1025.8 1026.2 0.0
 
Date/Time
EST
Temp
°C
App
Temp
°C
Dew
Point
Rel
Hum
%
Delta-T
°C
Wind Press
QNH
hPa
Press
MSL
hPa
Rain
since 9 am
mm
Dir
 
Spd
km/h
Gust
km/h
Spd
kts
Gust
kts
26/11:30pm 7.8 6.9 7.7 99 0.0 NW 2 7 1 4 1025.8 - 0.0
26/11:00pm 8.5 7.7 8.1 97 0.2 NW 2 9 1 5 1025.9 1026.3 0.0
26/10:30pm 9.2 7.7 8.4 95 0.4 WNW 6 11 3 6 1026.2 - 0.0
26/10:00pm 9.7 8.2 8.6 93 0.5 WNW 6 11 3 6 1026.2 1026.6 0.0
26/09:30pm 10.3 9.7 9.1 92 0.6 NW 2 6 1 3 1026.2 - 0.0
26/09:00pm 10.2 9.9 8.8 91 0.7 CALM 0 0 0 0 1026.2 1026.6 0.0
26/08:30pm 10.2 10.0 9.0 92 0.6 CALM 0 6 0 3 1025.9 - 0.0
26/08:00pm 10.2 10.0 9.1 93 0.5 CALM 0 0 0 0 1025.7 1026.0 0.0
26/07:30pm 10.2 10.0 9.0 92 0.6 CALM 0 0 0 0 1025.7 - 0.0
26/07:00pm 10.3 9.9 8.2 87 1.0 CALM 0 0 0 0 1025.6 1025.9 0.0
26/06:30pm 10.7 10.2 7.9 83 1.4 CALM 0 0 0 0 1025.3 - 0.0
26/06:00pm 11.0 10.4 7.5 79 1.7 CALM 0 0 0 0 1025.2 1025.5 0.0
26/05:30pm 13.0 12.6 8.1 72 2.4 CALM 0 0 0 0 1025.1 - 0.0
26/05:00pm 13.2 12.6 7.6 69 2.8 CALM 0 6 0 3 1024.9 1025.2 0.0
26/04:30pm 14.4 12.2 7.9 65 3.3 SW 9 15 5 8 1024.6 - 0.0
26/04:00pm 14.4 11.8 7.7 64 3.3 SW 11 17 6 9 1024.6 1024.9 0.0
26/03:30pm 15.2 12.2 7.5 60 3.9 WSW 13 20 7 11 1024.5 - 0.0
26/03:00pm 14.1 11.5 7.9 66 3.1 WSW 11 20 6 11 1024.4 1024.7 0.0
26/02:30pm 14.6 11.6 7.6 63 3.5 W 13 19 7 10 1024.0 - 0.0
26/02:00pm 14.7 11.4 8.2 65 3.3 WSW 15 20 8 11 1023.9 1024.3 0.0
26/01:30pm 14.4 11.2 8.6 68 3.0 WSW 15 22 8 12 1024.3 - 0.0
26/01:00pm 14.5 11.1 9.1 70 2.8 SW 17 22 9 12 1024.7 1025.0 0.0
26/12:30pm 14.2 11.7 9.8 75 2.3 WSW 13 20 7 11 1025.0 - 0.0
26/12:00pm 13.5 12.2 11.4 87 1.1 WSW 9 19 5 10 1025.3 1025.6 0.0
26/11:30am 12.3 10.4 11.8 97 0.3 WSW 13 26 7 14 1025.5 - 0.0
26/11:00am 12.2 11.2 12.2 100 0.0 WSW 9 13 5 7 1025.5 1025.8 0.0
26/10:30am 10.4 9.4 10.4 100 0.0 SW 6 11 3 6 1025.6 - 0.0
26/10:00am 9.8 8.5 9.8 100 0.0 WSW 7 11 4 6 1025.4 1025.7 0.0
26/09:30am 10.0 8.9 10.0 100 0.0 W 6 11 3 6 1025.2 - 0.0
26/09:00am 9.5 8.3 9.5 100 0.0 WSW 6 9 3 5 1024.8 1025.1 1.6
26/08:30am 9.2 7.9 9.2 100 0.0 W 6 9 3 5 1024.6 - 1.6
26/08:00am 9.1 7.6 9.1 100 0.0 W 7 13 4 7 1024.3 1024.6 1.6
26/07:30am 9.2 7.9 9.2 100 0.0 W 6 15 3 8 1023.9 - 1.6
26/07:00am 9.4 8.5 9.4 100 0.0 W 4 7 2 4 1023.6 1024.0 1.6
26/06:30am 9.5 8.3 9.5 100 0.0 W 6 11 3 6 1023.1 - 1.6
26/06:00am 9.7 8.3 9.7 100 0.0 W 7 13 4 7 1022.8 1023.2 1.4
26/05:30am 9.6 8.2 9.6 100 0.0 W 7 13 4 7 1022.6 - 1.4
26/05:00am 9.8 8.1 9.8 100 0.0 W 9 13 5 7 1022.3 1022.7 1.4
26/04:30am 9.6 8.4 9.6 100 0.0 WNW 6 9 3 5 1022.1 - 1.4
26/04:00am 9.5 8.3 9.5 100 0.0 WNW 6 9 3 5 1022.0 1022.4 1.4
26/03:30am 9.4 8.2 9.4 100 0.0 WNW 6 9 3 5 1021.8 - 1.4
26/03:00am 9.4 8.1 9.3 99 0.0 WNW 6 7 3 4 1021.6 1022.0 1.4
26/02:30am 9.1 8.1 9.0 99 0.0 WNW 4 7 2 4 1021.6 - 1.4
26/02:00am 9.3 8.8 9.2 99 0.0 NW 2 7 1 4 1021.5 1021.9 1.4
26/01:30am 9.5 8.1 9.4 99 0.1 NNW 7 9 4 5 1021.3 - 1.4
26/01:00am 9.4 8.1 9.3 99 0.0 NW 6 7 3 4 1021.3 1021.6 1.4
26/12:30am 9.5 8.3 9.4 99 0.1 WNW 6 7 3 4 1021.3 - 1.4
26/12:00am 9.5 8.1 9.4 99 0.0 W 7 11 4 6 1021.1 1021.4 1.4
 
Date/Time
EST
Temp
°C
App
Temp
°C
Dew
Point
Rel
Hum
%
Delta-T
°C
Wind Press
QNH
hPa
Press
MSL
hPa
Rain
since 9 am
mm
Dir
 
Spd
km/h
Gust
km/h
Spd
kts
Gust
kts
25/11:30pm 9.8 8.1 9.7 99 0.1 WNW 9 17 5 9 1021.0 - 1.4
25/11:00pm 9.6 7.8 9.5 99 0.1 WNW 9 17 5 9 1020.9 1021.2 1.4
25/10:30pm 9.2 7.7 9.1 99 0.0 WNW 7 13 4 7 1020.9 - 1.4
25/10:00pm 9.2 7.9 9.1 99 0.0 WNW 6 9 3 5 1020.6 1020.9 1.4
25/09:30pm 9.4 8.1 9.3 99 0.0 WNW 6 9 3 5 1020.2 - 1.4
25/09:00pm 9.8 8.1 9.7 99 0.1 W 9 15 5 8 1020.0 1020.3 1.4
25/08:30pm 9.3 7.8 9.2 99 0.0 WNW 7 9 4 5 1019.9 - 1.2

Other Formats:

Comma delimited format used in spreadsheet applications
http://www.bom.gov.au/fwo/IDV60801/IDV60801.95827.axf

JavaScript Object Notation format (JSON) in row-major order
http://www.bom.gov.au/fwo/IDV60801/IDV60801.95827.json